createdAt,value
2022-12-13T00:00:54.145Z,659.9
2022-12-13T00:01:56.694Z,659.9
2022-12-13T00:02:59.180Z,660.3
2022-12-13T00:04:02.336Z,660.8
2022-12-13T00:05:04.667Z,660.8
2022-12-13T00:06:06.894Z,660.4
2022-12-13T00:07:09.082Z,661
2022-12-13T00:08:11.963Z,661.4
2022-12-13T00:09:14.199Z,661.1
2022-12-13T00:10:16.387Z,661.5
2022-12-13T00:11:18.881Z,661.3
2022-12-13T00:12:20.789Z,660.7
2022-12-13T00:13:23.288Z,660.8
2022-12-13T00:14:25.786Z,660.9
2022-12-13T00:15:28.285Z,660.7
2022-12-13T00:16:31.060Z,660.9
2022-12-13T00:17:33.567Z,660.7
2022-12-13T00:18:36.065Z,661
2022-12-13T00:19:38.288Z,660.9
2022-12-13T00:20:40.832Z,660.9
2022-12-13T00:21:43.315Z,660.8
2022-12-13T00:22:45.234Z,661.3
2022-12-13T00:23:47.449Z,661.2
2022-12-13T00:24:49.666Z,661.3
2022-12-13T00:25:51.602Z,661.4
2022-12-13T00:26:54.079Z,661.4
2022-12-13T00:27:56.285Z,661.3
2022-12-13T00:28:58.484Z,661.2
2022-12-13T00:30:00.707Z,661.1
2022-12-13T00:32:08.263Z,661.3
2022-12-13T00:33:10.509Z,661.6
2022-12-13T00:34:13.003Z,661.9
2022-12-13T00:35:17.028Z,661.6
2022-12-13T00:36:19.398Z,661.1
2022-12-13T00:37:21.325Z,661.5
2022-12-13T00:38:23.238Z,661.9
2022-12-13T00:39:25.488Z,661.7
2022-12-13T00:40:27.970Z,662.2
2022-12-13T00:41:30.455Z,662
2022-12-13T00:42:32.662Z,661.9
2022-12-13T00:43:34.861Z,662.2
2022-12-13T00:44:37.068Z,662.1
2022-12-13T00:45:39.783Z,662.1
2022-12-13T00:46:42.288Z,662.2
2022-12-13T00:47:44.512Z,662.1
2022-12-13T00:48:47.022Z,662
2022-12-13T00:49:49.219Z,662.2
2022-12-13T00:50:51.694Z,662.2
2022-12-13T00:51:53.942Z,661.9
2022-12-13T00:52:56.130Z,662
2022-12-13T00:53:58.333Z,662.5
2022-12-13T00:55:00.293Z,662.3
2022-12-13T00:56:02.787Z,662.2
2022-12-13T00:57:05.276Z,662.3
2022-12-13T00:58:07.750Z,662.1
2022-12-13T00:59:10.228Z,662.4
2022-12-13T01:00:12.723Z,662.7
2022-12-13T01:01:15.667Z,663
2022-12-13T01:02:18.180Z,662.5
2022-12-13T01:03:21.226Z,662.6
2022-12-13T01:04:23.725Z,662.6
2022-12-13T01:06:31.212Z,662.6
2022-12-13T01:07:33.778Z,662.5
2022-12-13T01:08:35.740Z,662.7
2022-12-13T01:09:38.228Z,662.5
2022-12-13T01:10:40.455Z,662.9
2022-12-13T01:11:42.391Z,663
2022-12-13T01:12:44.881Z,662.8
2022-12-13T01:13:47.367Z,662.9
2022-12-13T01:15:54.282Z,663
2022-12-13T01:16:57.060Z,662.7
2022-12-13T01:17:59.610Z,663.1
2022-12-13T01:19:02.148Z,663.1
2022-12-13T01:20:04.630Z,663.2
2022-12-13T01:21:07.122Z,663.6
2022-12-13T01:22:09.324Z,663.4
2022-12-13T01:23:11.846Z,663.7
2022-12-13T01:24:14.043Z,664
2022-12-13T01:25:17.896Z,663.9
2022-12-13T01:26:20.436Z,663.7
2022-12-13T01:27:22.931Z,663.8
2022-12-13T01:28:25.412Z,663.8
2022-12-13T01:29:28.293Z,664.2
2022-12-13T01:30:30.884Z,664.4
2022-12-13T01:31:33.512Z,664.6
2022-12-13T01:32:36.016Z,664.5
2022-12-13T01:33:38.224Z,664.8
2022-12-13T01:34:40.748Z,664.8
2022-12-13T01:35:43.223Z,664.6
2022-12-13T01:36:45.437Z,665.2
2022-12-13T01:37:47.911Z,665.1
2022-12-13T01:38:49.862Z,665.1
2022-12-13T01:42:03.669Z,665.1
2022-12-13T01:44:11.155Z,665.5
2022-12-13T01:45:15.221Z,666.1
2022-12-13T01:46:18.085Z,666.1
2022-12-13T01:47:20.346Z,666
2022-12-13T01:48:22.847Z,666.6
2022-12-13T01:49:25.055Z,666.5
2022-12-13T01:50:27.309Z,666.5
2022-12-13T01:51:29.798Z,666.8
2022-12-13T01:52:32.005Z,666.6
2022-12-13T01:53:34.206Z,666.7
2022-12-13T01:54:36.648Z,666.5
2022-12-13T01:56:44.097Z,667
2022-12-13T01:57:51.063Z,666.9
2022-12-13T01:58:53.544Z,667.2
2022-12-13T01:59:56.023Z,667.2
2022-12-13T02:00:58.786Z,667.2
2022-12-13T02:02:03.117Z,667.5
2022-12-13T02:03:05.028Z,667.3
2022-12-13T02:04:07.525Z,667
2022-12-13T02:05:10.020Z,667.3
2022-12-13T02:06:12.253Z,667.4
2022-12-13T02:08:20.806Z,667.5
2022-12-13T02:09:23.311Z,668
2022-12-13T02:10:25.833Z,667.9
2022-12-13T02:11:28.322Z,667.8
2022-12-13T02:12:32.282Z,667.6
2022-12-13T02:13:34.520Z,667.6
2022-12-13T02:14:36.994Z,667.6
2022-12-13T02:15:39.451Z,668.2
2022-12-13T02:16:41.949Z,668.1
2022-12-13T02:17:47.069Z,668.3
2022-12-13T02:18:49.547Z,668.5
2022-12-13T02:19:51.767Z,668.2
2022-12-13T02:20:54.248Z,668.5
2022-12-13T02:21:56.752Z,668.6
2022-12-13T02:22:59.227Z,668.8
2022-12-13T02:25:06.695Z,669.1
2022-12-13T02:26:08.964Z,669.2
2022-12-13T02:27:11.576Z,668.8
2022-12-13T02:30:23.786Z,669.1
2022-12-13T02:31:26.410Z,669.3
2022-12-13T02:32:28.635Z,669.7
2022-12-13T02:33:31.122Z,670
2022-12-13T02:35:38.595Z,670.1
2022-12-13T02:36:40.784Z,670.3
2022-12-13T02:37:43.291Z,670
2022-12-13T02:38:45.794Z,670.3
2022-12-13T02:39:48.278Z,670.4
2022-12-13T02:40:50.773Z,670.2
2022-12-13T02:41:53.297Z,670.4
2022-12-13T02:42:55.791Z,670.6
2022-12-13T02:45:03.267Z,670.8
2022-12-13T02:46:05.809Z,670.7
2022-12-13T02:48:12.997Z,670.8
2022-12-13T02:49:15.486Z,671.1
2022-12-13T02:50:17.703Z,671.5
2022-12-13T02:51:19.936Z,671.7
2022-12-13T02:53:27.006Z,672.1
2022-12-13T02:54:29.485Z,671.8
2022-12-13T02:55:31.418Z,672.4
2022-12-13T02:56:33.625Z,672.1
2022-12-13T02:57:36.159Z,672.5
2022-12-13T02:58:38.374Z,672.5
2022-12-13T02:59:40.867Z,672.6
2022-12-13T03:00:43.076Z,673
2022-12-13T03:01:45.818Z,672.6
2022-12-13T03:02:49.048Z,672.4
2022-12-13T03:03:51.677Z,672.5
2022-12-13T03:04:54.193Z,672.3
2022-12-13T03:05:56.661Z,672.7
2022-12-13T03:06:58.891Z,672.2
2022-12-13T03:08:01.389Z,672.3
2022-12-13T03:09:03.641Z,672.5
2022-12-13T03:10:06.127Z,672.5
2022-12-13T03:11:08.622Z,672.7
2022-12-13T03:12:10.540Z,672.7
2022-12-13T03:13:13.073Z,673
2022-12-13T03:14:14.995Z,672.6
2022-12-13T03:15:18.372Z,672.7
2022-12-13T03:17:25.584Z,673.1
2022-12-13T03:18:28.068Z,673.1
2022-12-13T03:19:30.277Z,673.1
2022-12-13T03:20:32.801Z,673
2022-12-13T03:22:41.012Z,672.9
2022-12-13T03:23:43.507Z,672.9
2022-12-13T03:24:45.999Z,672.4
2022-12-13T03:25:48.495Z,672.4
2022-12-13T03:26:51.022Z,672.7
2022-12-13T03:27:53.227Z,672.8
2022-12-13T03:28:55.739Z,672.7
2022-12-13T03:29:58.247Z,672.4
2022-12-13T03:31:01.136Z,672.8
2022-12-13T03:32:03.358Z,673
2022-12-13T03:33:05.343Z,672.7
2022-12-13T03:34:07.845Z,672.9
2022-12-13T03:36:15.253Z,673.2
2022-12-13T03:37:17.453Z,673.3
2022-12-13T03:39:24.907Z,673.3
2022-12-13T03:40:27.417Z,673
2022-12-13T03:41:29.618Z,673.3
2022-12-13T03:42:32.107Z,673.3
2022-12-13T03:43:34.595Z,673.4
2022-12-13T03:44:37.119Z,673.4
2022-12-13T03:45:39.593Z,673.6
2022-12-13T03:46:42.609Z,673.6
2022-12-13T03:47:45.093Z,673.3
2022-12-13T03:48:47.303Z,673.1
2022-12-13T03:50:54.512Z,673.2
2022-12-13T03:51:56.719Z,673.3
2022-12-13T03:52:58.910Z,673.2
2022-12-13T03:54:01.418Z,673.5
2022-12-13T03:55:03.624Z,673.6
2022-12-13T03:56:05.920Z,673.9
2022-12-13T03:57:08.404Z,674
2022-12-13T03:59:15.581Z,674.5
2022-12-13T04:00:18.023Z,674.4
2022-12-13T04:01:21.132Z,674.6
2022-12-13T04:03:28.488Z,674.9
2022-12-13T04:04:30.746Z,674.7
2022-12-13T04:05:33.273Z,675.2
2022-12-13T04:06:35.489Z,675
2022-12-13T04:07:37.975Z,675
2022-12-13T04:08:41.083Z,675
2022-12-13T04:09:43.630Z,675.1
2022-12-13T04:10:46.158Z,675
2022-12-13T04:11:48.390Z,675.2
2022-12-13T04:12:50.610Z,675.2
2022-12-13T04:13:52.856Z,675.2
2022-12-13T04:14:55.334Z,675.1
2022-12-13T04:15:58.114Z,675.6
2022-12-13T04:17:00.344Z,675.2
2022-12-13T04:18:04.188Z,675.4
2022-12-13T04:19:06.703Z,675
2022-12-13T04:20:09.258Z,675
2022-12-13T04:21:11.188Z,675.1
2022-12-13T04:22:13.664Z,675.1
2022-12-13T04:23:15.603Z,675
2022-12-13T04:24:18.127Z,674.9
2022-12-13T04:25:20.363Z,675.1
2022-12-13T04:26:22.550Z,674.8
2022-12-13T04:27:24.474Z,675.2
2022-12-13T04:28:26.962Z,675.2
2022-12-13T04:30:34.134Z,675.1
2022-12-13T04:31:36.998Z,675.1
2022-12-13T04:32:39.508Z,675.1
2022-12-13T04:33:42.358Z,675.4
2022-12-13T04:34:44.566Z,675.3
2022-12-13T04:35:47.065Z,675
2022-12-13T04:36:49.560Z,675.2
2022-12-13T04:37:51.496Z,675.2
2022-12-13T04:38:53.977Z,675.4
2022-12-13T04:41:01.447Z,675.2
2022-12-13T04:42:03.658Z,675.2
2022-12-13T04:43:05.656Z,675.3
2022-12-13T04:45:14.995Z,675.3
2022-12-13T04:46:17.839Z,675.7
2022-12-13T04:47:20.952Z,675.5
2022-12-13T04:49:28.216Z,675.9
2022-12-13T04:50:30.517Z,675.5
2022-12-13T04:51:32.786Z,676
2022-12-13T04:52:34.990Z,676.2
2022-12-13T04:53:37.488Z,675.7
2022-12-13T04:54:39.697Z,675.6
2022-12-13T04:55:42.170Z,676
2022-12-13T04:56:44.164Z,676.1
2022-12-13T04:57:46.366Z,676.2
2022-12-13T04:58:48.601Z,676.1
2022-12-13T04:59:51.076Z,676.1
2022-12-13T05:00:54.048Z,676.1
2022-12-13T05:01:56.562Z,676.5
2022-12-13T05:02:59.298Z,676.4
2022-12-13T05:04:01.203Z,676.4
2022-12-13T05:05:03.689Z,676.3
2022-12-13T05:07:12.632Z,676.3
2022-12-13T05:08:15.469Z,676.9
2022-12-13T05:09:17.699Z,676.9
2022-12-13T05:11:25.159Z,677.5
2022-12-13T05:12:27.665Z,677.7
2022-12-13T05:13:30.151Z,677.6
2022-12-13T05:14:32.541Z,677.9
2022-12-13T05:15:35.450Z,677.9
2022-12-13T05:16:38.298Z,678.2
2022-12-13T05:17:40.548Z,678.1
2022-12-13T05:18:43.099Z,678.3
2022-12-13T05:19:45.036Z,678.3
2022-12-13T05:20:47.542Z,678.6
2022-12-13T05:21:50.022Z,678.1
2022-12-13T05:22:52.532Z,678.1
2022-12-13T05:23:55.014Z,678.7
2022-12-13T05:24:57.508Z,678.4
2022-12-13T05:25:59.726Z,678.3
2022-12-13T05:29:13.080Z,677.6
2022-12-13T05:30:15.610Z,677.6
2022-12-13T05:32:23.346Z,677.6
2022-12-13T05:33:25.589Z,677.3
2022-12-13T05:34:28.149Z,677.6
2022-12-13T05:35:30.634Z,677.4
2022-12-13T05:36:32.836Z,677.1
2022-12-13T05:37:36.668Z,677.5
2022-12-13T05:38:38.902Z,677.5
2022-12-13T05:39:41.106Z,677.6
2022-12-13T05:40:43.389Z,678
2022-12-13T05:41:45.608Z,678
2022-12-13T05:42:48.104Z,678.2
2022-12-13T05:43:50.617Z,678.2
2022-12-13T05:44:52.797Z,678.5
2022-12-13T05:45:55.579Z,678.4
2022-12-13T05:46:58.084Z,677.9
2022-12-13T05:48:00.576Z,677.9
2022-12-13T05:49:03.073Z,677.9
2022-12-13T05:50:05.337Z,677.8
2022-12-13T05:52:12.797Z,677.4
2022-12-13T05:54:20.000Z,677.5
2022-12-13T05:55:22.372Z,677.4
2022-12-13T05:56:25.369Z,677.7
2022-12-13T05:57:27.558Z,677.6
2022-12-13T05:59:35.044Z,677.7
2022-12-13T06:00:37.537Z,677.8
2022-12-13T06:02:45.746Z,677.7
2022-12-13T06:03:48.786Z,678.1
2022-12-13T06:04:51.369Z,678.2
2022-12-13T06:05:53.621Z,678.2
2022-12-13T06:06:56.150Z,678.5
2022-12-13T06:08:01.000Z,678.2
2022-12-13T06:09:03.938Z,678.1
2022-12-13T06:14:29.941Z,678
2022-12-13T06:16:37.419Z,677.7
2022-12-13T06:17:39.954Z,677.5
2022-12-13T06:18:42.202Z,677.6
2022-12-13T06:19:44.419Z,678
2022-12-13T06:20:46.964Z,678.1
2022-12-13T06:21:49.491Z,677.7
2022-12-13T06:22:52.029Z,677.7
2022-12-13T06:23:54.230Z,677.8
2022-12-13T06:24:56.716Z,677.7
2022-12-13T06:25:59.192Z,678.1
2022-12-13T06:27:01.401Z,677.9
2022-12-13T06:28:03.642Z,678
2022-12-13T06:29:05.863Z,678.6
2022-12-13T06:30:08.099Z,678.3
2022-12-13T06:31:10.813Z,678.3
2022-12-13T06:32:13.072Z,678.1
2022-12-13T06:34:21.442Z,678
2022-12-13T06:36:28.622Z,678
2022-12-13T06:37:32.322Z,677.9
2022-12-13T06:39:42.650Z,677
2022-12-13T06:40:44.682Z,677.1
2022-12-13T06:41:46.891Z,677.4
2022-12-13T06:42:49.112Z,677.2
2022-12-13T06:43:51.585Z,676.9
2022-12-13T06:45:59.306Z,677.1
2022-12-13T06:48:06.791Z,677.3
2022-12-13T06:49:09.288Z,676.9
2022-12-13T06:50:11.850Z,677.4
2022-12-13T06:52:19.790Z,677.6
2022-12-13T06:53:22.093Z,677.1
2022-12-13T06:54:24.027Z,677.2
2022-12-13T06:55:26.520Z,677
2022-12-13T06:56:28.729Z,676.8
2022-12-13T06:57:30.936Z,676.7
2022-12-13T06:58:33.452Z,677
2022-12-13T06:59:35.403Z,676.7
2022-12-13T07:02:49.183Z,676.5
2022-12-13T07:03:55.734Z,676.6
2022-12-13T07:04:58.345Z,676.4
2022-12-13T07:06:00.296Z,676.4
2022-12-13T07:07:03.959Z,676.5
2022-12-13T07:08:06.699Z,676.8
2022-12-13T07:09:09.328Z,676.5
2022-12-13T07:11:16.826Z,676.5
2022-12-13T07:12:19.062Z,676.7
2022-12-13T07:13:21.923Z,676.1
2022-12-13T07:14:24.428Z,676.2
2022-12-13T07:15:27.080Z,676.1
2022-12-13T07:16:29.602Z,676.2
2022-12-13T07:18:36.834Z,676.3
2022-12-13T07:19:39.347Z,676.2
2022-12-13T07:20:41.557Z,676.1
2022-12-13T07:21:44.072Z,675.6
2022-12-13T07:24:56.029Z,675.2
2022-12-13T07:25:58.519Z,675.1
2022-12-13T07:27:01.011Z,675.3
2022-12-13T07:28:05.036Z,675.1
2022-12-13T07:29:07.510Z,675.6
2022-12-13T07:30:09.728Z,675.4
2022-12-13T07:31:12.190Z,675.7
2022-12-13T07:32:13.873Z,675.7
2022-12-13T07:34:21.421Z,676.5
2022-12-13T07:35:22.793Z,676.3
2022-12-13T07:36:25.301Z,675.9
2022-12-13T07:38:32.781Z,675.7
2022-12-13T07:39:35.281Z,675.6
2022-12-13T07:40:38.587Z,675.9
2022-12-13T07:41:40.551Z,676
2022-12-13T07:42:42.761Z,676.2
2022-12-13T07:43:45.257Z,676.2
2022-12-13T07:44:47.463Z,676.5
2022-12-13T07:45:49.680Z,676.2
2022-12-13T07:46:52.407Z,676.2
2022-12-13T07:47:55.034Z,676.3
2022-12-13T07:50:03.781Z,676.3
2022-12-13T07:51:05.981Z,676.5
2022-12-13T07:52:08.174Z,676.4
2022-12-13T07:53:10.684Z,676
2022-12-13T07:54:13.216Z,676
2022-12-13T07:55:15.723Z,676.4
2022-12-13T07:56:18.253Z,676.2
2022-12-13T07:57:20.489Z,676.1
2022-12-13T07:58:22.693Z,675.6
2022-12-13T08:00:30.166Z,676
2022-12-13T08:01:32.775Z,676.1
2022-12-13T08:02:35.301Z,675.6
2022-12-13T08:03:37.521Z,675.8
2022-12-13T08:04:40.901Z,676
2022-12-13T08:05:43.954Z,675.2
2022-12-13T08:06:46.221Z,675.5
2022-12-13T08:07:48.569Z,675.6
2022-12-13T08:08:51.190Z,675.7
2022-12-13T08:09:55.299Z,675.7
2022-12-13T08:12:03.000Z,676.3
2022-12-13T08:13:05.256Z,676.1
2022-12-13T08:14:07.464Z,675.9
2022-12-13T08:17:19.628Z,676.1
2022-12-13T08:18:22.154Z,676.6
2022-12-13T08:19:24.109Z,676.3
2022-12-13T08:20:26.916Z,676.1
2022-12-13T08:23:39.442Z,677.3
2022-12-13T08:24:41.660Z,676.8
2022-12-13T08:25:44.168Z,677.2
2022-12-13T08:26:46.672Z,677
2022-12-13T08:27:49.207Z,677.1
2022-12-13T08:28:51.140Z,677.3
2022-12-13T08:29:53.634Z,677.3
2022-12-13T08:30:56.485Z,677.2
2022-12-13T08:34:08.364Z,676.8
2022-12-13T08:35:10.850Z,676.7
2022-12-13T08:36:12.795Z,676.7
2022-12-13T08:37:15.036Z,676.8
2022-12-13T08:40:29.040Z,676.5
2022-12-13T08:42:36.504Z,676.5
2022-12-13T08:43:38.992Z,676.4
2022-12-13T08:44:41.513Z,676.3
2022-12-13T08:45:43.437Z,676
2022-12-13T08:46:46.221Z,675.7
2022-12-13T08:47:48.733Z,676.2
2022-12-13T08:48:51.991Z,675.5
2022-12-13T08:49:54.583Z,675.3
2022-12-13T08:50:57.070Z,674.8
2022-12-13T08:51:59.280Z,675
2022-12-13T08:53:01.196Z,675.2
2022-12-13T08:55:08.392Z,675
2022-12-13T08:56:10.883Z,675
2022-12-13T08:57:13.375Z,674.7
2022-12-13T08:58:15.609Z,674.5
2022-12-13T08:59:18.331Z,674.1
2022-12-13T09:00:20.541Z,674.6
2022-12-13T09:01:23.026Z,674.5
2022-12-13T09:02:25.565Z,674.2
2022-12-13T09:03:27.833Z,674.2
2022-12-13T09:05:37.167Z,673.9
2022-12-13T09:06:39.675Z,674.1
2022-12-13T09:07:42.219Z,674
2022-12-13T09:19:39.760Z,675.1
2022-12-13T09:20:44.443Z,675
2022-12-13T09:21:46.729Z,674.9
2022-12-13T09:22:48.786Z,675.5
2022-12-13T09:23:51.292Z,675.1
2022-12-13T09:28:10.229Z,675.5
2022-12-13T09:29:13.606Z,675.6
2022-12-13T09:30:15.839Z,675.5
2022-12-13T09:31:18.213Z,675.3
2022-12-13T09:32:20.441Z,675.5
2022-12-13T09:34:28.310Z,675.1
2022-12-13T09:35:30.680Z,675
2022-12-13T09:36:33.248Z,675.2
2022-12-13T09:37:37.764Z,675.7
2022-12-13T09:38:42.400Z,675.5
2022-12-13T09:39:44.916Z,675.6
2022-12-13T09:40:47.412Z,676
2022-12-13T09:41:49.637Z,676
2022-12-13T09:50:27.805Z,676.2
2022-12-13T09:52:35.703Z,676.8
2022-12-13T09:53:41.040Z,677.2
2022-12-13T09:55:48.726Z,676.8
2022-12-13T09:56:51.351Z,676.6
2022-12-13T09:57:53.645Z,676.8
2022-12-13T09:58:56.135Z,676.8
2022-12-13T10:01:03.887Z,677.2
2022-12-13T10:02:06.401Z,677.5
2022-12-13T10:03:08.077Z,677.3
2022-12-13T10:04:10.320Z,677.8
2022-12-13T10:07:22.476Z,677.9
2022-12-13T10:08:25.061Z,678.1
2022-12-13T10:09:27.546Z,677.8
2022-12-13T10:10:30.291Z,678.1
2022-12-13T10:11:34.629Z,678.1
2022-12-13T10:12:37.115Z,678.2
2022-12-13T10:13:39.342Z,678
2022-12-13T10:14:41.306Z,678
2022-12-13T10:15:43.230Z,678
2022-12-13T10:16:46.176Z,677.8
2022-12-13T10:18:53.675Z,678.2
2022-12-13T10:19:55.893Z,678.3
2022-12-13T10:20:58.405Z,677.9
2022-12-13T10:25:15.937Z,678.9
2022-12-13T10:27:23.143Z,678.5
2022-12-13T10:28:25.094Z,678.4
2022-12-13T10:29:27.615Z,678.8
2022-12-13T10:30:31.561Z,678.6
2022-12-13T10:31:34.670Z,678.5
2022-12-13T10:33:41.569Z,678.7
2022-12-13T10:34:43.801Z,679
2022-12-13T10:35:46.317Z,679
2022-12-13T10:36:48.551Z,679.5
2022-12-13T10:37:50.479Z,679.2
2022-12-13T10:38:53.217Z,679.3
2022-12-13T10:39:55.708Z,679.4
2022-12-13T10:42:03.276Z,679.7
2022-12-13T10:43:05.494Z,679.7
2022-12-13T10:44:07.704Z,680
2022-12-13T10:45:09.968Z,680.2
2022-12-13T10:46:12.763Z,680.1
2022-12-13T10:48:20.269Z,680.6
2022-12-13T10:49:22.760Z,680.7
2022-12-13T10:50:25.238Z,680.5
2022-12-13T10:51:27.721Z,680.4
2022-12-13T10:53:34.633Z,680.5
2022-12-13T10:55:42.105Z,680.6
2022-12-13T10:56:44.026Z,680.2
2022-12-13T10:57:46.316Z,680.5
2022-12-13T10:58:48.812Z,680.8
2022-12-13T10:59:51.056Z,680.2
2022-12-13T11:00:53.845Z,680.1
2022-12-13T11:01:56.427Z,680.4
2022-12-13T11:02:58.928Z,680.1
2022-12-13T11:06:10.841Z,680.7
2022-12-13T11:07:12.799Z,680.8
2022-12-13T11:08:15.026Z,681.4
2022-12-13T11:11:26.949Z,681.6
2022-12-13T11:12:29.185Z,681.2
2022-12-13T11:13:31.808Z,681.6
2022-12-13T11:15:40.446Z,681.5
2022-12-13T11:16:42.799Z,681.3
2022-12-13T11:17:45.317Z,681.2
2022-12-13T11:18:46.977Z,681.2
2022-12-13T11:19:49.446Z,681.3
2022-12-13T11:21:56.646Z,681.5
2022-12-13T11:22:58.853Z,682.3
2022-12-13T11:25:06.052Z,681.8
2022-12-13T11:26:08.314Z,682.2
2022-12-13T11:27:10.248Z,681.8
2022-12-13T11:29:17.584Z,682.1
2022-12-13T11:30:19.799Z,682.3
2022-12-13T11:31:22.407Z,682
2022-12-13T11:32:24.994Z,681.9
2022-12-13T11:33:27.474Z,682.3
2022-12-13T11:34:29.970Z,682.6
2022-12-13T11:35:32.178Z,682.6
2022-12-13T11:36:34.669Z,682.8
2022-12-13T11:37:36.874Z,682.8
2022-12-13T11:38:39.109Z,683
2022-12-13T11:39:41.041Z,683.2
2022-12-13T11:40:42.977Z,682.9
2022-12-13T11:41:45.196Z,683
2022-12-13T11:42:48.858Z,683.3
2022-12-13T11:43:51.337Z,683.1
2022-12-13T11:44:53.967Z,683.1
2022-12-13T11:45:56.806Z,683
2022-12-13T11:46:59.062Z,682.8
2022-12-13T11:48:01.628Z,682.9
2022-12-13T11:49:04.196Z,683.5
2022-12-13T11:50:06.682Z,683.7
2022-12-13T11:51:09.164Z,683.7
2022-12-13T11:52:11.372Z,684.1
2022-12-13T11:53:13.862Z,684
2022-12-13T11:55:20.753Z,684.1
2022-12-13T11:56:22.385Z,683.9
2022-12-13T11:57:24.942Z,683.8
2022-12-13T12:00:37.731Z,683.8
2022-12-13T12:01:41.083Z,683.9
2022-12-13T12:02:43.879Z,684.1
2022-12-13T12:03:46.877Z,683.7
2022-12-13T12:04:51.517Z,683.7
2022-12-13T12:05:58.160Z,683
2022-12-13T12:09:10.354Z,683.4
2022-12-13T12:10:12.468Z,684
2022-12-13T12:11:14.718Z,683.4
2022-12-13T12:13:22.206Z,683.9
2022-12-13T12:14:24.404Z,684.4
2022-12-13T12:15:29.121Z,684.2
2022-12-13T12:16:31.980Z,684.6
2022-12-13T12:18:39.538Z,684.3
2022-12-13T12:19:42.019Z,684.3
2022-12-13T12:20:44.605Z,684.4
2022-12-13T12:22:52.005Z,684.1
2022-12-13T12:23:54.694Z,684.5
2022-12-13T12:24:56.912Z,684.7
2022-12-13T12:25:58.851Z,684.6
2022-12-13T12:27:01.337Z,684.4
2022-12-13T12:28:03.839Z,684.7
2022-12-13T12:30:11.729Z,685
2022-12-13T12:31:14.273Z,685.1
2022-12-13T12:32:16.677Z,685.5
2022-12-13T12:33:18.608Z,685.5
2022-12-13T12:35:25.776Z,685
2022-12-13T12:36:28.273Z,685.1
2022-12-13T12:37:30.759Z,685.1
2022-12-13T12:38:33.280Z,685.2
2022-12-13T12:39:35.769Z,685.1
2022-12-13T12:43:52.918Z,685
2022-12-13T12:44:55.373Z,685.2
2022-12-13T12:45:59.474Z,685.1
2022-12-13T12:49:14.442Z,684.8
2022-12-13T12:50:16.398Z,685.2
2022-12-13T12:51:19.492Z,684.8
2022-12-13T12:52:21.419Z,685.1
2022-12-13T12:53:23.328Z,684.8
2022-12-13T12:55:30.507Z,684.7
2022-12-13T12:56:33.005Z,684.5
2022-12-13T12:57:35.490Z,684.3
2022-12-13T12:58:38.000Z,684.4
2022-12-13T12:59:40.219Z,683.8
2022-12-13T13:00:42.461Z,683.6
2022-12-13T13:01:45.529Z,683.7
2022-12-13T13:02:48.225Z,683.5
2022-12-13T13:03:50.797Z,683.3
2022-12-13T13:04:53.416Z,683.4
2022-12-13T13:08:06.051Z,683.2
2022-12-13T13:09:07.969Z,683.2
2022-12-13T13:14:30.356Z,682.7
2022-12-13T13:15:33.117Z,682.7
2022-12-13T13:16:35.112Z,683.4
2022-12-13T13:17:37.632Z,683.1
2022-12-13T13:18:40.124Z,682.9
2022-12-13T13:19:42.623Z,683.2
2022-12-13T13:20:45.847Z,683.1
2022-12-13T13:21:48.133Z,683.2
2022-12-13T13:23:55.041Z,682.6
2022-12-13T13:24:57.539Z,683
2022-12-13T13:27:04.986Z,682.8
2022-12-13T13:28:06.362Z,682.5
2022-12-13T13:29:08.312Z,682.4
2022-12-13T13:30:10.809Z,682.6
2022-12-13T13:31:13.660Z,682.6
2022-12-13T13:33:20.869Z,682.4
2022-12-13T13:34:23.098Z,682.7
2022-12-13T13:35:25.318Z,682.5
2022-12-13T13:37:32.890Z,682.6
2022-12-13T13:38:35.384Z,682.1
2022-12-13T13:39:37.617Z,681.9
2022-12-13T13:40:39.833Z,682.2
2022-12-13T13:41:43.570Z,682.2
2022-12-13T13:42:46.116Z,682.5
2022-12-13T13:43:48.638Z,682.2
2022-12-13T13:44:50.585Z,682.5
2022-12-13T13:45:52.807Z,682.3
2022-12-13T13:48:00.745Z,682.1
2022-12-13T13:49:03.243Z,681.7
2022-12-13T13:50:05.741Z,682.2
2022-12-13T13:51:07.966Z,681.8
2022-12-13T13:54:20.518Z,682.1
2022-12-13T13:55:22.724Z,682.2
2022-12-13T13:56:25.207Z,681.9
2022-12-13T13:58:32.678Z,682.4
2022-12-13T14:00:39.594Z,682
2022-12-13T14:01:42.245Z,681.6
2022-12-13T14:02:45.109Z,682.1
2022-12-13T14:03:47.618Z,682.1
2022-12-13T14:04:49.870Z,682.1
2022-12-13T14:05:52.374Z,681.8
2022-12-13T14:07:59.288Z,681.6
2022-12-13T14:09:01.522Z,681.7
2022-12-13T14:10:04.103Z,681.7
2022-12-13T14:11:06.617Z,681.8
2022-12-13T14:12:08.809Z,681.9
2022-12-13T14:13:11.008Z,681.6
2022-12-13T14:15:18.181Z,682.3
2022-12-13T14:16:23.038Z,682.4
2022-12-13T14:17:25.280Z,683.2
2022-12-13T14:18:27.770Z,682.9
2022-12-13T14:19:29.988Z,682.3
2022-12-13T14:20:32.898Z,682.4
2022-12-13T14:21:35.427Z,682.3
2022-12-13T14:22:37.363Z,682.3
2022-12-13T14:23:39.862Z,682.2
2022-12-13T14:24:42.366Z,682.3
2022-12-13T14:27:54.919Z,682
2022-12-13T14:28:57.142Z,681.8
2022-12-13T14:30:00.509Z,682.1
2022-12-13T14:31:02.863Z,682
2022-12-13T14:32:05.407Z,682
2022-12-13T14:33:07.329Z,682
2022-12-13T14:34:08.970Z,682.2
2022-12-13T14:36:16.445Z,682.1
2022-12-13T14:37:19.447Z,682.1
2022-12-13T14:38:21.958Z,682.2
2022-12-13T14:40:29.458Z,681.7
2022-12-13T14:41:31.689Z,682.1
2022-12-13T14:42:33.950Z,681.5
2022-12-13T14:43:36.408Z,681.5
2022-12-13T14:44:38.356Z,681.5
2022-12-13T14:45:40.319Z,681.1
2022-12-13T14:46:42.885Z,681.5
2022-12-13T14:47:45.154Z,681.1
2022-12-13T14:48:47.670Z,680.8
2022-12-13T14:49:51.298Z,681
2022-12-13T14:50:53.537Z,680.5
2022-12-13T14:51:56.032Z,680.7
2022-12-13T14:52:58.526Z,680.8
2022-12-13T14:54:01.010Z,681.1
2022-12-13T14:55:02.952Z,680.5
2022-12-13T14:56:05.445Z,680.9
2022-12-13T14:57:07.939Z,681.1
2022-12-13T14:58:10.169Z,681.1
2022-12-13T14:59:12.471Z,680.6
2022-12-13T15:00:14.948Z,681.3
2022-12-13T15:01:17.760Z,681.3
2022-12-13T15:03:28.409Z,681.7
2022-12-13T15:04:31.015Z,681.7
2022-12-13T15:05:32.976Z,681.9
2022-12-13T15:06:35.249Z,682.2
2022-12-13T15:07:37.781Z,681.7
2022-12-13T15:08:39.989Z,682.1
2022-12-13T15:09:42.215Z,681.5
2022-12-13T15:11:49.391Z,681.3
2022-12-13T15:12:51.605Z,681.4
2022-12-13T15:13:53.825Z,681.7
2022-12-13T15:14:56.139Z,681.8
2022-12-13T15:15:58.870Z,682
2022-12-13T15:17:01.099Z,681.8
2022-12-13T15:18:03.594Z,681.6
2022-12-13T15:20:11.383Z,681.7
2022-12-13T15:21:13.931Z,681.8
2022-12-13T15:22:16.465Z,681.9
2022-12-13T15:23:18.674Z,682
2022-12-13T15:24:21.182Z,681.8
2022-12-13T15:25:23.465Z,681.9
2022-12-13T15:27:30.368Z,682.4
2022-12-13T15:28:32.583Z,682
2022-12-13T15:29:35.081Z,682.3
2022-12-13T15:30:37.679Z,681.9
2022-12-13T15:31:41.011Z,682.3
2022-12-13T15:32:43.336Z,682
2022-12-13T15:34:50.508Z,682.3
2022-12-13T15:35:52.704Z,682
2022-12-13T15:36:54.908Z,682
2022-12-13T15:37:58.965Z,682
2022-12-13T15:39:00.901Z,681.7
2022-12-13T15:40:02.884Z,681.5
2022-12-13T15:41:05.107Z,681.9
2022-12-13T15:42:07.319Z,682.3
2022-12-13T15:43:08.950Z,681.7
2022-12-13T15:44:11.183Z,681.5
2022-12-13T15:45:13.386Z,681.6
2022-12-13T15:46:16.366Z,681.4
2022-12-13T15:48:23.575Z,681.6
2022-12-13T15:49:25.810Z,682.2
2022-12-13T15:50:28.017Z,682.3
2022-12-13T15:51:32.234Z,682.3
2022-12-13T15:52:34.423Z,682.5
2022-12-13T15:53:36.954Z,682.7
2022-12-13T15:54:39.169Z,682.7
2022-12-13T15:55:41.391Z,682.5
2022-12-13T15:56:43.882Z,682.6
2022-12-13T15:57:46.094Z,682.8
2022-12-13T15:58:48.584Z,682.8
2022-12-13T15:59:51.099Z,682.8
2022-12-13T16:00:53.864Z,682.6
2022-12-13T16:04:07.467Z,682.7
2022-12-13T16:05:09.953Z,683
2022-12-13T16:06:12.154Z,682.7
2022-12-13T16:07:14.078Z,683
2022-12-13T16:08:16.310Z,683.2
2022-12-13T16:09:18.542Z,683.1
2022-12-13T16:10:21.025Z,682.9
2022-12-13T16:11:23.243Z,682.9
2022-12-13T16:12:25.156Z,683.4
2022-12-13T16:13:30.537Z,683.3
2022-12-13T16:14:33.176Z,683.6
2022-12-13T16:15:35.408Z,683.6
2022-12-13T16:16:38.207Z,683.5
2022-12-13T16:17:40.695Z,683.5
2022-12-13T16:18:43.023Z,683.3
2022-12-13T16:19:45.892Z,683.7
2022-12-13T16:20:48.582Z,683.7
2022-12-13T16:21:50.725Z,684